Benone, United Kingdom
Current Conditions -  °F | °C
As of 9:20 AM on Tuesday 21 Oct 2014 (Local Time) from EGAE Reporting Station
Scattered Clouds Scattered Clouds  
Wind Chill:   Ceiling: Unl
Heat Index:   Visibility: 6mi
Dew Point:   Wind: 33mph
Humidity: 76%   Direction: 310°NW
Pressure: 29.59"   Gusts: 49mph
Location:  55.17°N, 6.88°W
Report Text: EGAE 210820Z 31029G43KT 9999 FEW020CB SCT035 09/05 Q1002
Loading
Personal Weather Stations






























Interactive Weather Map
Tropical Storm Tracking
New forecast layout! Learn more

10-Day Weather Forecast

Advertisements
Track Severe Weather on mobile